createdAt,value
2022-11-02T00:02:59.852Z,100119.66
2022-11-02T00:06:03.963Z,100112.19
2022-11-02T00:09:11.164Z,100110.25
2022-11-02T00:12:15.292Z,100111.63
2022-11-02T00:15:19.865Z,100115.31
2022-11-02T00:18:24.454Z,100122.50
2022-11-02T00:21:30.024Z,100112.25
2022-11-02T00:24:35.725Z,100108.28
2022-11-02T00:27:40.566Z,100108.16
2022-11-02T00:30:45.608Z,100100.47
2022-11-02T00:33:49.703Z,100099.19
2022-11-02T00:36:55.678Z,100096.19
2022-11-02T00:40:01.592Z,100100.94
2022-11-02T00:43:06.446Z,100096.91
2022-11-02T00:46:10.753Z,100095.03
2022-11-02T00:49:15.389Z,100093.38
2022-11-02T00:52:19.425Z,100090.13
2022-11-02T00:55:28.586Z,100090.03
2022-11-02T00:58:37.724Z,100095.25
2022-11-02T01:01:47.528Z,100093.22
2022-11-02T01:04:51.703Z,100083.97
2022-11-02T01:07:57.333Z,100081.00
2022-11-02T01:11:15.324Z,100076.66
2022-11-02T01:14:19.374Z,100063.81
2022-11-02T01:17:23.536Z,100074.38
2022-11-02T01:20:27.454Z,100071.56
2022-11-02T01:23:34.365Z,100060.91
2022-11-02T01:26:39.852Z,100074.31
2022-11-02T01:29:44.024Z,100073.03
2022-11-02T01:32:48.144Z,100065.88
2022-11-02T01:35:52.298Z,100069.38
2022-11-02T01:38:57.304Z,100069.16
2022-11-02T01:42:02.974Z,100058.91
2022-11-02T01:45:08.113Z,100068.34
2022-11-02T01:48:12.394Z,100067.91
2022-11-02T01:51:21.223Z,100058.22
2022-11-02T01:54:28.463Z,100062.22
2022-11-02T01:57:35.186Z,100069.84
2022-11-02T02:00:39.686Z,100068.81
2022-11-02T02:03:45.164Z,100062.31
2022-11-02T02:06:51.323Z,100060.31
2022-11-02T02:09:57.525Z,100060.94
2022-11-02T02:13:04.945Z,100059.72
2022-11-02T02:16:17.584Z,100058.50
2022-11-02T02:19:34.476Z,100058.31
2022-11-02T02:23:03.705Z,100053.94
2022-11-02T02:26:43.907Z,100052.78
2022-11-02T02:30:06.353Z,100059.38
2022-11-02T02:33:14.873Z,100060.34
2022-11-02T02:36:26.213Z,100056.91
2022-11-02T02:39:36.404Z,100059.38
2022-11-02T02:42:45.924Z,100064.19
2022-11-02T02:45:55.984Z,100065.03
2022-11-02T02:49:01.174Z,100064.56
2022-11-02T02:52:06.044Z,100060.91
2022-11-02T02:55:17.883Z,100066.78
2022-11-02T02:58:26.033Z,100059.28
2022-11-02T03:01:32.663Z,100061.44
2022-11-02T03:04:38.783Z,100057.31
2022-11-02T03:07:50.324Z,100053.84
2022-11-02T03:11:00.434Z,100049.94
2022-11-02T03:14:16.706Z,100048.25
2022-11-02T03:17:30.532Z,100047.25
2022-11-02T03:20:45.763Z,100042.47
2022-11-02T03:23:56.747Z,100046.25
2022-11-02T03:27:12.331Z,100047.59
2022-11-02T03:30:19.695Z,100050.03
2022-11-02T03:33:35.572Z,100046.78
2022-11-02T03:36:47.324Z,100050.59
2022-11-02T03:39:55.886Z,100047.69
2022-11-02T03:43:02.393Z,100048.84
2022-11-02T03:46:10.187Z,100045.81
2022-11-02T03:49:20.255Z,100052.44
2022-11-02T03:52:31.051Z,100051.78
2022-11-02T03:55:39.013Z,100055.28
2022-11-02T03:58:43.294Z,100063.19
2022-11-02T04:01:51.028Z,100053.78
2022-11-02T04:04:58.604Z,100055.59
2022-11-02T04:08:20.673Z,100056.94
2022-11-02T04:11:44.046Z,100048.91
2022-11-02T04:14:51.103Z,100059.88
2022-11-02T04:18:13.055Z,100056.06
2022-11-02T04:21:19.284Z,100053.00
2022-11-02T04:24:40.414Z,100060.72
2022-11-02T04:27:45.184Z,100059.41
2022-11-02T04:30:49.736Z,100054.47
2022-11-02T04:33:55.953Z,100053.31
2022-11-02T04:37:01.663Z,100048.22
2022-11-02T04:40:05.423Z,100051.16
2022-11-02T04:43:10.174Z,100049.34
2022-11-02T04:46:14.974Z,100046.91
2022-11-02T04:49:20.333Z,100052.19
2022-11-02T04:52:26.013Z,100051.84
2022-11-02T04:55:31.334Z,100055.13
2022-11-02T04:58:36.721Z,100052.84
2022-11-02T05:01:42.139Z,100054.63
2022-11-02T05:04:46.855Z,100060.72
2022-11-02T05:07:53.193Z,100062.88
2022-11-02T05:10:58.484Z,100055.91
2022-11-02T05:14:03.893Z,100062.34
2022-11-02T05:17:08.913Z,100061.88
2022-11-02T05:20:15.125Z,100058.13
2022-11-02T05:23:22.653Z,100066.81
2022-11-02T05:26:26.934Z,100060.88
2022-11-02T05:29:31.223Z,100065.84
2022-11-02T05:32:35.714Z,100063.50
2022-11-02T05:35:39.934Z,100064.03
2022-11-02T05:38:46.296Z,100071.03
2022-11-02T05:41:50.874Z,100072.75
2022-11-02T05:44:55.114Z,100069.75
2022-11-02T05:48:02.804Z,100074.38
2022-11-02T05:51:07.154Z,100066.66
2022-11-02T05:54:12.855Z,100070.16
2022-11-02T05:57:18.816Z,100065.22
2022-11-02T06:00:24.504Z,100073.41
2022-11-02T06:03:28.973Z,100074.16
2022-11-02T06:06:34.313Z,100075.81
2022-11-02T06:09:40.133Z,100085.91
2022-11-02T06:12:44.743Z,100077.19
2022-11-02T06:15:49.003Z,100078.53
2022-11-02T06:18:53.455Z,100082.34
2022-11-02T06:21:58.314Z,100078.22
2022-11-02T06:25:03.893Z,100078.25
2022-11-02T06:28:08.164Z,100080.09
2022-11-02T06:31:12.415Z,100078.28
2022-11-02T06:34:16.715Z,100086.03
2022-11-02T06:37:20.891Z,100087.34
2022-11-02T06:40:26.842Z,100080.47
2022-11-02T06:43:31.436Z,100084.78
2022-11-02T06:46:35.555Z,100089.19
2022-11-02T06:49:39.935Z,100082.25
2022-11-02T06:52:45.753Z,100091.66
2022-11-02T06:55:55.508Z,100087.81
2022-11-02T06:58:59.903Z,100077.84
2022-11-02T07:02:04.283Z,100078.47
2022-11-02T07:05:09.733Z,100072.00
2022-11-02T07:08:13.796Z,100072.97
2022-11-02T07:11:19.702Z,100069.44
2022-11-02T07:14:23.953Z,100076.50
2022-11-02T07:17:32.051Z,100074.25
2022-11-02T07:20:37.174Z,100067.00
2022-11-02T07:23:41.513Z,100064.72
2022-11-02T07:26:50.545Z,100057.34
2022-11-02T07:29:54.734Z,100056.19
2022-11-02T07:32:59.048Z,100054.69
2022-11-02T07:36:06.544Z,100060.66
2022-11-02T07:39:11.174Z,100054.94
2022-11-02T07:42:17.073Z,100041.84
2022-11-02T07:45:23.113Z,100043.78
2022-11-02T07:48:27.393Z,100035.75
2022-11-02T07:51:31.599Z,100044.66
2022-11-02T07:54:38.520Z,100038.28
2022-11-02T07:57:53.981Z,100023.69
2022-11-02T08:01:00.324Z,100021.59
2022-11-02T08:04:04.586Z,100017.16
2022-11-02T08:07:10.126Z,100021.41
2022-11-02T08:10:14.583Z,100019.56
2022-11-02T08:13:22.616Z,100007.47
2022-11-02T08:16:27.084Z,100006.97
2022-11-02T08:19:34.153Z,100007.16
2022-11-02T08:22:39.510Z,99994.50
2022-11-02T08:25:45.947Z,100000.13
2022-11-02T08:28:51.705Z,99989.38
2022-11-02T08:31:55.804Z,99991.41
2022-11-02T08:35:00.109Z,99982.09
2022-11-02T08:38:04.510Z,99981.44
2022-11-02T08:41:08.914Z,99975.88
2022-11-02T08:44:14.594Z,99967.75
2022-11-02T08:47:19.255Z,99966.22
2022-11-02T08:50:24.212Z,99962.91
2022-11-02T08:53:28.776Z,99969.50
2022-11-02T08:56:32.921Z,99959.09
2022-11-02T08:59:38.656Z,99955.84
2022-11-02T09:02:43.016Z,99949.41
2022-11-02T09:05:49.013Z,99945.09
2022-11-02T09:08:56.230Z,99945.28
2022-11-02T09:12:02.236Z,99943.22
2022-11-02T09:15:09.105Z,99937.34
2022-11-02T09:18:13.366Z,99927.94
2022-11-02T09:21:17.574Z,99931.16
2022-11-02T09:24:21.853Z,99926.66
2022-11-02T09:27:26.224Z,99914.69
2022-11-02T09:30:31.803Z,99910.28
2022-11-02T09:33:36.644Z,99904.63
2022-11-02T09:36:40.764Z,99902.75
2022-11-02T09:39:45.224Z,99894.84
2022-11-02T09:42:59.304Z,99884.66
2022-11-02T09:46:08.334Z,99885.16
2022-11-02T09:49:17.013Z,99882.00
2022-11-02T09:52:29.542Z,99870.69
2022-11-02T09:55:37.186Z,99876.53
2022-11-02T09:58:42.764Z,99875.19
2022-11-02T10:02:01.515Z,99866.13
2022-11-02T10:05:23.893Z,99856.56
2022-11-02T10:08:40.394Z,99851.94
2022-11-02T10:11:52.873Z,99851.41
2022-11-02T10:15:04.164Z,99845.56
2022-11-02T10:18:16.683Z,99844.50
2022-11-02T10:21:23.445Z,99841.56
2022-11-02T10:24:33.765Z,99837.50
2022-11-02T10:27:41.136Z,99824.13
2022-11-02T10:30:46.605Z,99823.94
2022-11-02T10:33:54.128Z,99825.59
2022-11-02T10:37:25.385Z,99812.19
2022-11-02T10:40:47.895Z,99802.44
2022-11-02T10:44:13.064Z,99803.31
2022-11-02T10:47:20.535Z,99795.19
2022-11-02T10:50:43.714Z,99793.59
2022-11-02T10:53:50.463Z,99785.53
2022-11-02T10:56:57.905Z,99768.81
2022-11-02T11:00:24.790Z,99767.75
2022-11-02T11:03:29.321Z,99771.78
2022-11-02T11:06:39.314Z,99755.38
2022-11-02T11:09:51.346Z,99753.75
2022-11-02T11:12:57.921Z,99754.00
2022-11-02T11:16:03.612Z,99752.69
2022-11-02T11:22:46.504Z,99736.78
2022-11-02T11:25:59.115Z,99734.06
2022-11-02T11:29:03.375Z,99732.41
2022-11-02T11:32:16.555Z,99728.38
2022-11-02T11:35:21.904Z,99714.38
2022-11-02T11:38:28.727Z,99714.34
2022-11-02T11:41:35.126Z,99714.88
2022-11-02T11:44:39.505Z,99704.88
2022-11-02T11:47:44.714Z,99702.75
2022-11-02T11:50:49.611Z,99692.50
2022-11-02T11:54:22.648Z,99690.91
2022-11-02T11:57:31.846Z,99690.66
2022-11-02T12:00:36.129Z,99679.91
2022-11-02T12:03:57.463Z,99678.06
2022-11-02T12:07:20.634Z,99676.13
2022-11-02T12:10:41.784Z,99672.63
2022-11-02T12:13:59.684Z,99666.69
2022-11-02T12:17:26.803Z,99658.88
2022-11-02T12:20:47.675Z,99658.09
2022-11-02T12:24:04.423Z,99659.47
2022-11-02T12:27:26.174Z,99655.06
2022-11-02T12:30:37.694Z,99649.47
2022-11-02T12:33:58.473Z,99653.53
2022-11-02T12:37:40.385Z,99644.34
2022-11-02T12:40:56.664Z,99634.09
2022-11-02T12:44:09.744Z,99632.47
2022-11-02T12:47:28.174Z,99634.06
2022-11-02T12:50:47.021Z,99634.38
2022-11-02T12:53:56.395Z,99629.28
2022-11-02T12:57:00.849Z,99634.38
2022-11-02T13:00:09.724Z,99629.28
2022-11-02T13:03:28.533Z,99623.03
2022-11-02T13:06:38.794Z,99622.81
2022-11-02T13:09:51.662Z,99625.53
2022-11-02T13:13:00.168Z,99626.09
2022-11-02T13:16:08.212Z,99622.84
2022-11-02T13:19:20.243Z,99617.19
2022-11-02T13:22:31.081Z,99613.97
2022-11-02T13:25:38.253Z,99614.81
2022-11-02T13:28:46.474Z,99609.41
2022-11-02T13:31:57.174Z,99616.41
2022-11-02T13:35:06.913Z,99613.69
2022-11-02T13:38:26.015Z,99611.84
2022-11-02T13:42:02.795Z,99618.03
2022-11-02T13:45:29.294Z,99621.00
2022-11-02T13:48:55.914Z,99615.84
2022-11-02T13:52:04.519Z,99616.09
2022-11-02T13:55:16.332Z,99616.94
2022-11-02T13:58:26.383Z,99620.16
2022-11-02T14:01:33.405Z,99618.50
2022-11-02T14:04:43.123Z,99624.88
2022-11-02T14:07:47.457Z,99609.28
2022-11-02T14:11:25.173Z,99619.72
2022-11-02T14:14:29.383Z,99621.25
2022-11-02T14:18:04.633Z,99622.75
2022-11-02T14:21:45.483Z,99622.66
2022-11-02T14:25:15.052Z,99623.09
2022-11-02T14:28:45.570Z,99625.16
2022-11-02T14:32:02.643Z,99623.88
2022-11-02T14:35:29.103Z,99623.97
2022-11-02T14:38:53.604Z,99628.63
2022-11-02T14:42:17.943Z,99626.63
2022-11-02T14:45:46.723Z,99624.06
2022-11-02T14:48:54.135Z,99620.75
2022-11-02T14:52:05.994Z,99620.13
2022-11-02T14:55:25.566Z,99622.06
2022-11-02T14:58:37.183Z,99621.66
2022-11-02T15:01:53.754Z,99623.34
2022-11-02T15:05:00.801Z,99629.66
2022-11-02T15:08:09.308Z,99625.28
2022-11-02T15:11:50.035Z,99621.66
2022-11-02T15:14:58.108Z,99624.47
2022-11-02T15:18:22.865Z,99623.34
2022-11-02T15:21:28.830Z,99619.53
2022-11-02T15:24:35.381Z,99638.47
2022-11-02T15:27:42.339Z,99637.44
2022-11-02T15:30:51.541Z,99642.22
2022-11-02T15:33:58.369Z,99641.25
2022-11-02T15:37:03.609Z,99641.25
2022-11-02T15:40:20.809Z,99641.06
2022-11-02T15:43:58.066Z,99663.34
2022-11-02T15:47:14.594Z,99670.72
2022-11-02T15:50:48.040Z,99673.69
2022-11-02T15:54:04.599Z,99682.22
2022-11-02T15:57:18.609Z,99688.38
2022-11-02T16:00:30.482Z,99694.47
2022-11-02T16:03:36.847Z,99705.84
2022-11-02T16:06:43.340Z,99707.91
2022-11-02T16:09:48.410Z,99705.63
2022-11-02T16:13:00.869Z,99708.09
2022-11-02T16:16:08.469Z,99701.34
2022-11-02T16:19:21.489Z,99707.72
2022-11-02T16:22:28.174Z,99710.72
2022-11-02T16:25:39.683Z,99720.25
2022-11-02T16:28:49.289Z,99720.47
2022-11-02T16:31:53.792Z,99728.84
2022-11-02T16:35:02.597Z,99723.97
2022-11-02T16:38:07.455Z,99721.41
2022-11-02T16:41:12.218Z,99718.97
2022-11-02T16:44:22.380Z,99725.91
2022-11-02T16:47:39.991Z,99730.59
2022-11-02T16:51:02.764Z,99739.50
2022-11-02T16:54:31.140Z,99752.69
2022-11-02T16:57:46.188Z,99745.28
2022-11-02T17:01:03.656Z,99750.97
2022-11-02T17:04:22.200Z,99751.94
2022-11-02T17:07:32.071Z,99765.06
2022-11-02T17:10:38.049Z,99767.06
2022-11-02T17:13:50.639Z,99764.41
2022-11-02T17:17:07.119Z,99762.41
2022-11-02T17:20:24.651Z,99769.09
2022-11-02T17:23:37.846Z,99759.31
2022-11-02T17:26:42.368Z,99769.56
2022-11-02T17:29:46.611Z,99772.66
2022-11-02T17:32:51.219Z,99779.69
2022-11-02T17:35:57.868Z,99782.28
2022-11-02T17:39:05.914Z,99781.91
2022-11-02T17:42:33.974Z,99786.56
2022-11-02T17:45:39.433Z,99783.31
2022-11-02T17:48:43.790Z,99798.13
2022-11-02T17:51:48.835Z,99787.97
2022-11-02T17:54:54.684Z,99794.03
2022-11-02T17:57:59.774Z,99793.81
2022-11-02T18:01:05.889Z,99800.50
2022-11-02T18:04:10.143Z,99794.59
2022-11-02T18:07:14.415Z,99804.25
2022-11-02T18:10:21.023Z,99801.25
2022-11-02T18:13:26.214Z,99797.34
2022-11-02T18:16:30.904Z,99811.56
2022-11-02T18:19:35.415Z,99808.16
2022-11-02T18:22:40.907Z,99807.06
2022-11-02T18:25:46.733Z,99806.84
2022-11-02T18:28:51.055Z,99811.16
2022-11-02T18:31:55.183Z,99810.00
2022-11-02T18:34:59.464Z,99818.03
2022-11-02T18:38:04.101Z,99822.97
2022-11-02T18:41:25.371Z,99827.31
2022-11-02T18:44:29.663Z,99823.09
2022-11-02T18:47:33.993Z,99821.91
2022-11-02T18:50:38.083Z,99821.56
2022-11-02T18:53:42.463Z,99814.25
2022-11-02T18:56:48.483Z,99824.69
2022-11-02T18:59:52.673Z,99829.38
2022-11-02T19:02:56.964Z,99826.41
2022-11-02T19:06:18.373Z,99842.09
2022-11-02T19:09:24.984Z,99834.97
2022-11-02T19:12:32.022Z,99837.41
2022-11-02T19:15:42.257Z,99841.22
2022-11-02T19:18:47.042Z,99843.50
2022-11-02T19:21:51.371Z,99850.81
2022-11-02T19:24:55.817Z,99848.50
2022-11-02T19:28:01.552Z,99849.31
2022-11-02T19:31:06.912Z,99845.69
2022-11-02T19:34:11.474Z,99838.28
2022-11-02T19:37:16.430Z,99834.22
2022-11-02T19:40:20.623Z,99838.91
2022-11-02T19:43:26.684Z,99849.00
2022-11-02T19:46:31.225Z,99841.63
2022-11-02T19:49:35.323Z,99845.91
2022-11-02T19:52:39.984Z,99846.34
2022-11-02T19:55:53.326Z,99847.63
2022-11-02T19:58:59.883Z,99848.25
2022-11-02T20:02:04.363Z,99846.03
2022-11-02T20:05:09.665Z,99848.41
2022-11-02T20:08:14.022Z,99847.41
2022-11-02T20:11:19.181Z,99858.09
2022-11-02T20:14:24.902Z,99860.56
2022-11-02T20:17:38.074Z,99859.78
2022-11-02T20:20:54.001Z,99854.81
2022-11-02T20:23:59.132Z,99859.75
2022-11-02T20:27:06.063Z,99859.75
2022-11-02T20:30:15.795Z,99857.75
2022-11-02T20:33:20.124Z,99856.97
2022-11-02T20:36:24.367Z,99858.66
2022-11-02T20:39:28.679Z,99864.78
2022-11-02T20:42:33.498Z,99862.09
2022-11-02T20:45:39.418Z,99861.50
2022-11-02T20:48:44.190Z,99854.75
2022-11-02T20:51:48.377Z,99849.25
2022-11-02T20:54:52.838Z,99845.94
2022-11-02T20:58:01.821Z,99845.94
2022-11-02T21:01:07.981Z,99856.97
2022-11-02T21:04:18.511Z,99847.41
2022-11-02T21:07:24.480Z,99843.16
2022-11-02T21:10:28.791Z,99843.94
2022-11-02T21:13:50.181Z,99835.59
2022-11-02T21:16:56.581Z,99837.84
2022-11-02T21:20:28.385Z,99837.81
2022-11-02T21:23:25.212Z,99837.44
2022-11-02T21:26:37.204Z,99834.75
2022-11-02T21:29:41.440Z,99845.38
2022-11-02T21:32:47.580Z,99833.75
2022-11-02T21:35:55.763Z,99830.28
2022-11-02T21:39:00.304Z,99839.06
2022-11-02T21:42:05.770Z,99836.59
2022-11-02T21:45:15.165Z,99835.59
2022-11-02T21:48:26.172Z,99835.59
2022-11-02T21:51:35.202Z,99829.47
2022-11-02T21:54:43.540Z,99841.72
2022-11-02T21:57:50.571Z,99842.31
2022-11-02T22:01:19.753Z,99840.28
2022-11-02T22:04:29.171Z,99846.00
2022-11-02T22:07:53.390Z,99848.44
2022-11-02T22:10:59.243Z,99852.47
2022-11-02T22:14:05.750Z,99848.44
2022-11-02T22:17:21.820Z,99851.28
2022-11-02T22:20:37.380Z,99844.50
2022-11-02T22:23:43.890Z,99842.25
2022-11-02T22:26:50.361Z,99844.66
2022-11-02T22:29:54.570Z,99838.75
2022-11-02T22:32:58.891Z,99837.53
2022-11-02T22:36:07.430Z,99837.53
2022-11-02T22:39:15.629Z,99831.81
2022-11-02T22:42:21.871Z,99826.75
2022-11-02T22:45:29.091Z,99825.94
2022-11-02T22:48:34.591Z,99822.25
2022-11-02T22:51:41.750Z,99818.59
2022-11-02T22:54:48.050Z,99825.50
2022-11-02T22:57:59.904Z,99832.63
2022-11-02T23:01:05.204Z,99839.59
2022-11-02T23:04:11.909Z,99845.47
2022-11-02T23:07:17.785Z,99859.41
2022-11-02T23:10:35.716Z,99871.81
2022-11-02T23:13:42.687Z,99866.53
2022-11-02T23:16:48.749Z,99866.91
2022-11-02T23:19:53.166Z,99870.09
2022-11-02T23:23:19.354Z,99870.75
2022-11-02T23:26:28.515Z,99863.38
2022-11-02T23:29:50.025Z,99860.94
2022-11-02T23:32:54.255Z,99862.94
2022-11-02T23:36:12.843Z,99862.31
2022-11-02T23:39:35.915Z,99867.41
2022-11-02T23:42:40.435Z,99869.41
2022-11-02T23:45:44.834Z,99861.75
2022-11-02T23:48:52.748Z,99856.63
2022-11-02T23:52:15.305Z,99869.88
2022-11-02T23:55:38.154Z,99876.06
2022-11-02T23:58:42.505Z,99870.97
